Time;durP1;ratioP1;P1;durP2;ratioP2;P2;SDS_P1;SDS_P2;PMS_P1;PMS_P2;Temp;Humidity;BMP_temperature;BMP_pressure;BME280_temperature;BME280_humidity;BME280_pressure;Samples;Min_cycle;Max_cycle;Signal;HPM_P1;HPM_P2
2023/08/21 00:02:05;;;;;;;16.88;8.27;;;;;;;;;;5080936;28;20031;-57
2023/08/21 00:04:31;;;;;;;17.75;7.65;;;;;;;;;;5066280;28;20148;-58
2023/08/21 00:06:57;;;;;;;16.50;7.40;;;;;;;;;;5074648;28;20031;-58
2023/08/21 00:09:23;;;;;;;18.38;7.80;;;;;;;;;;5067226;28;20512;-56
2023/08/21 00:11:49;;;;;;;15.60;7.28;;;;;;;;;;5067359;28;20036;-59
2023/08/21 00:14:15;;;;;;;14.43;7.25;;;;;;;;;;5067075;28;20017;-56
2023/08/21 00:16:41;;;;;;;16.00;7.00;;;;;;;;;;5067531;28;20033;-56
2023/08/21 00:19:07;;;;;;;14.50;7.18;;;;;;;;;;5067193;28;20111;-57
2023/08/21 00:21:33;;;;;;;15.48;7.03;;;;;;;;;;5067642;28;20490;-57
2023/08/21 00:23:59;;;;;;;16.58;7.38;;;;;;;;;;5084409;28;20054;-57
2023/08/21 00:26:25;;;;;;;15.50;7.40;;;;;;;;;;5087478;28;20095;-55
2023/08/21 00:28:51;;;;;;;14.77;7.57;;;;;;;;;;5087612;28;20440;-58
2023/08/21 00:31:17;;;;;;;18.02;7.85;;;;;;;;;;5087640;28;20028;-57
2023/08/21 00:33:43;;;;;;;18.30;7.40;;;;;;;;;;5066860;28;20054;-57
2023/08/21 00:36:09;;;;;;;16.88;8.00;;;;;;;;;;5086645;28;20036;-58
2023/08/21 00:38:35;;;;;;;15.43;7.95;;;;;;;;;;5088708;28;20028;-57
2023/08/21 00:41:01;;;;;;;16.65;7.55;;;;;;;;;;5088330;28;20020;-56
2023/08/21 00:43:27;;;;;;;16.08;7.40;;;;;;;;;;5092871;28;20020;-56
2023/08/21 00:45:53;;;;;;;15.23;7.22;;;;;;;;;;5092590;28;20085;-58
2023/08/21 00:48:20;;;;;;;15.73;8.18;;;;;;;;;;5093036;28;20032;-58
2023/08/21 00:50:46;;;;;;;16.95;7.47;;;;;;;;;;5092748;28;20425;-58
2023/08/21 00:53:12;;;;;;;17.08;7.82;;;;;;;;;;5093321;28;20108;-55
2023/08/21 00:55:39;;;;;;;14.73;7.03;;;;;;;;;;5094418;28;20392;-59
2023/08/21 00:58:05;;;;;;;15.27;7.32;;;;;;;;;;5094439;28;20035;-57
2023/08/21 01:00:33;;;;;;;18.20;7.20;;;;;;;;;;5094637;28;20028;-58
2023/08/21 01:02:59;;;;;;;16.55;8.00;;;;;;;;;;5094806;28;20103;-58
2023/08/21 01:05:25;;;;;;;16.50;7.10;;;;;;;;;;5094461;28;20101;-58
2023/08/21 01:08:00;;;;;;;16.92;7.60;;;;;;;;;;5094926;28;20391;-58
2023/08/21 01:10:40;;;;;;;19.42;7.70;;;;;;;;;;5099105;28;20066;-57
2023/08/21 01:13:06;;;;;;;17.77;7.75;;;;;;;;;;5079598;28;20511;-58
2023/08/21 01:15:32;;;;;;;16.50;7.93;;;;;;;;;;5056512;28;20025;-56
2023/08/21 01:17:59;;;;;;;17.30;7.65;;;;;;;;;;5056189;28;20097;-58
2023/08/21 01:20:26;;;;;;;14.85;7.22;;;;;;;;;;5074009;28;20024;-59
2023/08/21 01:22:52;;;;;;;18.02;7.53;;;;;;;;;;5073803;28;20024;-58
2023/08/21 01:25:18;;;;;;;16.00;7.68;;;;;;;;;;5073438;28;20385;-56
2023/08/21 01:27:45;;;;;;;16.23;7.30;;;;;;;;;;5073836;28;20107;-58
2023/08/21 01:30:11;;;;;;;14.98;7.60;;;;;;;;;;5073708;28;20029;-58
2023/08/21 01:32:40;;;;;;;16.10;7.05;;;;;;;;;;5076953;28;20020;-58
2023/08/21 01:35:07;;;;;;;16.13;7.45;;;;;;;;;;5075577;28;20131;-58
2023/08/21 01:37:33;;;;;;;15.68;7.35;;;;;;;;;;5075705;28;20028;-56
2023/08/21 01:39:59;;;;;;;14.73;7.22;;;;;;;;;;5075592;28;20038;-54
2023/08/21 01:42:25;;;;;;;13.60;6.40;;;;;;;;;;5085299;28;20443;-58
2023/08/21 01:44:51;;;;;;;15.95;7.22;;;;;;;;;;5073199;28;20039;-56
2023/08/21 01:47:17;;;;;;;19.80;7.90;;;;;;;;;;5073271;28;20514;-57
2023/08/21 01:49:43;;;;;;;17.60;7.28;;;;;;;;;;5073320;28;20500;-57
2023/08/21 01:52:09;;;;;;;17.42;7.82;;;;;;;;;;5074344;28;20074;-57
2023/08/21 01:54:36;;;;;;;13.73;6.82;;;;;;;;;;5072207;28;20048;-57
2023/08/21 01:57:02;;;;;;;16.80;7.20;;;;;;;;;;5073302;28;20017;-60
2023/08/21 01:59:28;;;;;;;15.45;7.10;;;;;;;;;;5073011;28;20085;-58
2023/08/21 02:01:54;;;;;;;16.27;7.10;;;;;;;;;;5073339;28;20025;-58
2023/08/21 02:04:20;;;;;;;17.48;7.32;;;;;;;;;;5072977;28;20036;-55
2023/08/21 02:06:46;;;;;;;16.95;7.18;;;;;;;;;;5073098;28;20024;-58
2023/08/21 02:09:12;;;;;;;14.27;7.15;;;;;;;;;;5073061;28;20060;-58
2023/08/21 02:11:38;;;;;;;17.02;7.28;;;;;;;;;;5073051;28;20065;-55
2023/08/21 02:14:04;;;;;;;14.35;7.15;;;;;;;;;;5073961;28;20024;-58
2023/08/21 02:16:30;;;;;;;14.82;7.10;;;;;;;;;;5072806;28;20052;-58
2023/08/21 02:18:57;;;;;;;16.73;7.10;;;;;;;;;;5072848;28;20125;-57
2023/08/21 02:21:23;;;;;;;17.80;7.10;;;;;;;;;;5072878;28;20715;-57
2023/08/21 02:23:49;;;;;;;15.90;6.68;;;;;;;;;;5072664;28;20060;-58
2023/08/21 02:26:16;;;;;;;15.52;7.43;;;;;;;;;;5072532;28;20042;-58
2023/08/21 02:28:43;;;;;;;15.23;6.95;;;;;;;;;;5072494;28;20036;-58
2023/08/21 02:31:10;;;;;;;18.13;7.30;;;;;;;;;;5072661;28;20656;-57
2023/08/21 02:33:36;;;;;;;15.02;7.10;;;;;;;;;;5072519;28;20048;-57
2023/08/21 02:36:03;;;;;;;15.52;7.30;;;;;;;;;;5054293;28;20064;-58
2023/08/21 02:38:29;;;;;;;16.25;7.10;;;;;;;;;;5076020;28;20028;-57
2023/08/21 02:40:55;;;;;;;15.82;7.22;;;;;;;;;;5075938;28;20107;-59
2023/08/21 02:43:21;;;;;;;20.50;8.15;;;;;;;;;;5092347;28;20063;-58
2023/08/21 02:45:47;;;;;;;17.38;7.85;;;;;;;;;;5092404;28;20030;-58
2023/08/21 02:48:13;;;;;;;16.40;8.10;;;;;;;;;;5092338;28;20020;-59
2023/08/21 02:50:41;;;;;;;15.32;7.40;;;;;;;;;;5092645;28;20561;-59
2023/08/21 02:53:07;;;;;;;15.85;7.53;;;;;;;;;;5092754;28;20208;-59
2023/08/21 02:55:33;;;;;;;18.33;7.60;;;;;;;;;;5092273;28;20103;-59
2023/08/21 02:57:59;;;;;;;15.02;7.60;;;;;;;;;;5092057;28;20020;-59
2023/08/21 03:00:25;;;;;;;18.08;7.60;;;;;;;;;;5092216;28;20498;-58
2023/08/21 03:02:51;;;;;;;15.30;7.40;;;;;;;;;;5092401;28;20028;-57
2023/08/21 03:05:17;;;;;;;19.23;8.02;;;;;;;;;;5092249;28;20072;-59
2023/08/21 03:07:43;;;;;;;16.23;7.82;;;;;;;;;;5092193;28;20061;-59
2023/08/21 03:10:09;;;;;;;15.10;7.50;;;;;;;;;;5091819;28;20016;-59
2023/08/21 03:12:35;;;;;;;15.38;7.40;;;;;;;;;;5079266;28;20031;-58
2023/08/21 03:15:01;;;;;;;17.67;7.82;;;;;;;;;;5071781;28;20388;-59
2023/08/21 03:17:27;;;;;;;17.88;7.80;;;;;;;;;;5071507;28;20091;-56
2023/08/21 03:19:53;;;;;;;16.92;7.90;;;;;;;;;;5071402;28;20467;-59
2023/08/21 03:22:19;;;;;;;17.48;7.80;;;;;;;;;;5071377;28;20025;-59
2023/08/21 03:24:45;;;;;;;16.13;8.10;;;;;;;;;;5071282;28;20149;-59
2023/08/21 03:27:11;;;;;;;17.67;7.68;;;;;;;;;;5071514;28;20035;-59
2023/08/21 03:29:37;;;;;;;15.95;7.45;;;;;;;;;;5071430;28;20103;-56
2023/08/21 03:32:03;;;;;;;18.50;8.23;;;;;;;;;;5053469;28;20073;-56
2023/08/21 03:34:29;;;;;;;16.42;7.68;;;;;;;;;;5075123;28;20050;-57
2023/08/21 03:36:55;;;;;;;16.27;7.45;;;;;;;;;;5091795;28;20020;-56
2023/08/21 03:39:21;;;;;;;17.70;8.63;;;;;;;;;;5085885;28;20039;-57
2023/08/21 03:41:47;;;;;;;15.32;7.60;;;;;;;;;;5081633;28;20016;-58
2023/08/21 03:44:13;;;;;;;17.27;7.93;;;;;;;;;;5070787;28;20371;-59
2023/08/21 03:46:39;;;;;;;16.20;7.72;;;;;;;;;;5070819;28;20036;-58
2023/08/21 03:49:05;;;;;;;15.02;7.38;;;;;;;;;;5052933;28;20020;-57
2023/08/21 03:51:31;;;;;;;17.67;8.25;;;;;;;;;;5081380;28;20028;-58
2023/08/21 03:53:57;;;;;;;18.23;8.15;;;;;;;;;;5090870;28;20549;-59
2023/08/21 03:56:23;;;;;;;16.05;8.02;;;;;;;;;;5091312;28;20040;-58
2023/08/21 03:58:49;;;;;;;15.40;8.20;;;;;;;;;;5091127;28;20404;-59
2023/08/21 04:01:15;;;;;;;15.75;8.00;;;;;;;;;;5091125;28;20028;-58
2023/08/21 04:03:42;;;;;;;16.55;7.75;;;;;;;;;;5090990;28;20032;-58
2023/08/21 04:06:08;;;;;;;18.02;8.43;;;;;;;;;;5090507;28;20103;-59
2023/08/21 04:08:34;;;;;;;16.70;7.70;;;;;;;;;;5089326;28;20024;-57
2023/08/21 04:11:00;;;;;;;15.18;7.38;;;;;;;;;;5094785;28;20059;-56
2023/08/21 04:13:26;;;;;;;18.38;8.40;;;;;;;;;;5092758;28;20016;-57
2023/08/21 04:15:55;;;;;;;17.83;8.15;;;;;;;;;;5090489;28;20165;-59
2023/08/21 04:18:21;;;;;;;18.42;9.07;;;;;;;;;;5090977;28;20020;-56
2023/08/21 04:20:51;;;;;;;19.55;9.02;;;;;;;;;;5072834;28;20101;-58
2023/08/21 04:23:17;;;;;;;18.02;8.60;;;;;;;;;;5079796;28;20042;-59
2023/08/21 04:25:43;;;;;;;16.63;8.35;;;;;;;;;;5070320;28;20112;-57
2023/08/21 04:28:09;;;;;;;16.98;8.43;;;;;;;;;;5070574;28;20423;-59
2023/08/21 04:30:35;;;;;;;15.50;8.73;;;;;;;;;;5070392;28;20056;-57
2023/08/21 04:33:01;;;;;;;18.50;8.85;;;;;;;;;;5070670;28;20449;-59
2023/08/21 04:35:27;;;;;;;22.52;10.50;;;;;;;;;;5069231;28;20027;-57
2023/08/21 04:37:53;;;;;;;16.38;8.60;;;;;;;;;;5070467;28;20090;-59
2023/08/21 04:40:21;;;;;;;18.33;8.52;;;;;;;;;;5070304;28;20024;-58
2023/08/21 04:42:47;;;;;;;18.77;8.93;;;;;;;;;;5071710;28;20058;-57
2023/08/21 04:45:13;;;;;;;16.65;8.38;;;;;;;;;;5072874;28;20028;-59
2023/08/21 04:47:39;;;;;;;19.27;9.02;;;;;;;;;;5072992;28;20021;-59
2023/08/21 04:50:05;;;;;;;16.42;8.57;;;;;;;;;;5071643;28;20028;-56
2023/08/21 04:52:31;;;;;;;19.95;8.80;;;;;;;;;;5071792;28;20391;-57
2023/08/21 04:54:57;;;;;;;22.95;11.90;;;;;;;;;;5053152;28;20016;-59
2023/08/21 04:57:23;;;;;;;16.25;9.35;;;;;;;;;;5070930;28;20617;-58
2023/08/21 04:59:49;;;;;;;17.25;9.18;;;;;;;;;;5070891;28;20579;-59
2023/08/21 05:02:15;;;;;;;17.20;9.50;;;;;;;;;;5071340;28;20027;-59
2023/08/21 05:04:41;;;;;;;18.40;9.52;;;;;;;;;;5070271;28;20381;-59
2023/08/21 05:07:07;;;;;;;19.25;9.35;;;;;;;;;;5070479;28;20071;-58
2023/08/21 05:09:33;;;;;;;20.88;10.15;;;;;;;;;;5069990;28;20132;-59
2023/08/21 05:11:59;;;;;;;19.30;10.18;;;;;;;;;;5052370;28;20107;-57
2023/08/21 05:14:25;;;;;;;20.05;10.07;;;;;;;;;;5069782;28;20044;-55
2023/08/21 05:16:51;;;;;;;20.98;11.45;;;;;;;;;;5052137;28;20500;-58
2023/08/21 05:19:18;;;;;;;20.67;10.20;;;;;;;;;;5051893;28;20021;-58
2023/08/21 05:21:44;;;;;;;19.52;10.23;;;;;;;;;;5070373;28;20028;-58
2023/08/21 05:24:10;;;;;;;20.83;10.27;;;;;;;;;;5069895;28;20035;-59
2023/08/21 05:26:36;;;;;;;17.08;9.60;;;;;;;;;;5069920;28;20036;-60
2023/08/21 05:29:03;;;;;;;21.83;10.60;;;;;;;;;;5071431;28;20028;-55
2023/08/21 05:31:28;;;;;;;17.48;9.45;;;;;;;;;;5073346;28;20033;-60
2023/08/21 05:33:54;;;;;;;20.42;9.80;;;;;;;;;;5074423;28;20032;-57
2023/08/21 05:36:20;;;;;;;16.95;10.38;;;;;;;;;;5073728;28;20025;-58
2023/08/21 05:38:48;;;;;;;18.50;9.20;;;;;;;;;;5073455;28;20102;-58
2023/08/21 05:41:14;;;;;;;19.38;10.27;;;;;;;;;;5078016;28;20051;-57
2023/08/21 05:43:42;;;;;;;18.90;9.82;;;;;;;;;;5077389;28;20479;-55
2023/08/21 05:46:08;;;;;;;23.33;10.18;;;;;;;;;;5073624;28;20013;-57
2023/08/21 05:48:34;;;;;;;19.05;10.18;;;;;;;;;;5073260;28;20036;-58
2023/08/21 05:51:00;;;;;;;19.88;11.38;;;;;;;;;;5073224;28;20485;-58
2023/08/21 05:53:26;;;;;;;18.63;10.65;;;;;;;;;;5073265;28;20092;-58
2023/08/21 05:55:52;;;;;;;19.10;9.88;;;;;;;;;;5073054;28;20029;-59
2023/08/21 05:58:18;;;;;;;20.67;10.13;;;;;;;;;;5073852;28;20073;-59
2023/08/21 06:00:45;;;;;;;17.30;9.63;;;;;;;;;;5073771;28;20032;-59
2023/08/21 06:03:11;;;;;;;17.65;9.48;;;;;;;;;;5086260;28;20039;-57
2023/08/21 06:05:37;;;;;;;19.20;9.60;;;;;;;;;;5088737;28;20074;-59
2023/08/21 06:08:03;;;;;;;18.35;9.43;;;;;;;;;;5086245;28;20032;-57
2023/08/21 06:10:29;;;;;;;17.88;9.88;;;;;;;;;;5074211;28;20413;-59
2023/08/21 06:12:55;;;;;;;16.60;9.45;;;;;;;;;;5074748;28;20016;-56
2023/08/21 06:15:21;;;;;;;18.17;10.25;;;;;;;;;;5092729;28;20024;-59
2023/08/21 06:17:47;;;;;;;17.77;9.90;;;;;;;;;;5093151;28;20028;-54
2023/08/21 06:20:13;;;;;;;19.25;10.38;;;;;;;;;;5092282;28;20032;-58
2023/08/21 06:22:40;;;;;;;20.85;10.07;;;;;;;;;;5088312;28;20043;-59
2023/08/21 06:25:06;;;;;;;20.80;9.65;;;;;;;;;;5077316;28;20035;-60
2023/08/21 06:27:32;;;;;;;18.50;10.40;;;;;;;;;;5092823;28;20440;-59
2023/08/21 06:29:58;;;;;;;17.17;9.85;;;;;;;;;;5082137;28;20028;-58
2023/08/21 06:32:24;;;;;;;21.85;10.30;;;;;;;;;;5053886;28;20020;-59
2023/08/21 06:34:50;;;;;;;20.58;10.32;;;;;;;;;;5071716;28;20028;-59
2023/08/21 06:37:16;;;;;;;20.95;10.55;;;;;;;;;;5073253;28;20047;-59
2023/08/21 06:39:42;;;;;;;17.98;9.63;;;;;;;;;;5091781;28;20028;-59
2023/08/21 06:42:08;;;;;;;19.20;9.93;;;;;;;;;;5093225;28;20387;-59
2023/08/21 06:44:34;;;;;;;22.75;11.02;;;;;;;;;;5095352;28;20028;-59
2023/08/21 06:47:01;;;;;;;18.85;9.45;;;;;;;;;;5096230;28;20112;-59
2023/08/21 06:49:27;;;;;;;16.88;9.70;;;;;;;;;;5093921;28;20023;-59
2023/08/21 06:51:53;;;;;;;19.55;11.35;;;;;;;;;;5092706;28;20415;-59
2023/08/21 06:54:19;;;;;;;19.23;10.10;;;;;;;;;;5091562;28;20111;-58
2023/08/21 06:56:45;;;;;;;20.13;11.18;;;;;;;;;;5071951;28;20025;-59
2023/08/21 06:59:11;;;;;;;20.23;11.98;;;;;;;;;;5071426;28;20043;-59
2023/08/21 07:01:37;;;;;;;20.85;10.10;;;;;;;;;;5071744;28;20032;-59
2023/08/21 07:04:03;;;;;;;22.02;10.10;;;;;;;;;;5071166;28;20112;-58
2023/08/21 07:06:29;;;;;;;18.48;10.48;;;;;;;;;;5071597;28;20052;-59
2023/08/21 07:08:55;;;;;;;19.35;10.73;;;;;;;;;;5071642;28;20021;-61
2023/08/21 07:11:21;;;;;;;19.58;10.45;;;;;;;;;;5074121;28;20032;-59
2023/08/21 07:13:47;;;;;;;17.33;9.90;;;;;;;;;;5073252;28;20024;-59
2023/08/21 07:16:13;;;;;;;22.40;10.63;;;;;;;;;;5073239;28;20150;-59
2023/08/21 07:18:39;;;;;;;21.45;10.75;;;;;;;;;;5091977;28;20629;-60
2023/08/21 07:21:05;;;;;;;21.13;10.93;;;;;;;;;;5091871;28;20028;-58
2023/08/21 07:23:33;;;;;;;15.40;9.60;;;;;;;;;;5091791;28;20024;-58
2023/08/21 07:25:59;;;;;;;17.30;10.70;;;;;;;;;;5090973;28;20024;-59
2023/08/21 07:28:25;;;;;;;16.83;10.15;;;;;;;;;;5064256;28;20120;-57
2023/08/21 07:30:56;;;;;;;16.17;10.18;;;;;;;;;;5079691;28;20032;-58
2023/08/21 07:33:22;;;;;;;20.13;10.45;;;;;;;;;;5071404;28;20028;-58
2023/08/21 07:35:48;;;;;;;15.82;10.30;;;;;;;;;;5072183;28;20032;-59
2023/08/21 07:38:14;;;;;;;16.40;11.25;;;;;;;;;;5073080;28;20039;-58
2023/08/21 07:40:40;;;;;;;16.10;10.65;;;;;;;;;;5091576;28;20028;-57
2023/08/21 07:43:06;;;;;;;17.38;11.30;;;;;;;;;;5091405;28;20392;-52
2023/08/21 07:45:32;;;;;;;16.42;11.23;;;;;;;;;;5091147;28;20054;-60
2023/08/21 07:47:58;;;;;;;17.85;11.82;;;;;;;;;;5091395;28;20050;-61
2023/08/21 07:50:24;;;;;;;17.95;11.52;;;;;;;;;;5091195;28;20028;-59
2023/08/21 07:52:50;;;;;;;19.55;11.60;;;;;;;;;;5072813;28;20503;-61
2023/08/21 07:55:16;;;;;;;17.23;11.90;;;;;;;;;;5089757;28;20024;-58
2023/08/21 07:57:42;;;;;;;20.30;11.95;;;;;;;;;;5070768;28;20024;-59
2023/08/21 08:00:09;;;;;;;16.75;11.27;;;;;;;;;;5070879;28;20386;-59
2023/08/21 08:02:35;;;;;;;17.60;11.68;;;;;;;;;;5072051;28;20040;-59
2023/08/21 08:05:01;;;;;;;17.70;11.88;;;;;;;;;;5052668;28;20056;-60
2023/08/21 08:07:27;;;;;;;17.35;11.38;;;;;;;;;;5052615;28;20107;-61
2023/08/21 08:09:53;;;;;;;20.23;11.77;;;;;;;;;;5070541;28;20136;-55
2023/08/21 08:12:20;;;;;;;18.48;11.50;;;;;;;;;;5070944;28;20045;-60
2023/08/21 08:14:46;;;;;;;17.65;11.25;;;;;;;;;;5070580;28;20016;-61
2023/08/21 08:17:12;;;;;;;20.08;11.38;;;;;;;;;;5070655;28;20034;-60
2023/08/21 08:19:38;;;;;;;20.00;11.82;;;;;;;;;;5080412;28;20042;-60
2023/08/21 08:22:04;;;;;;;16.95;11.05;;;;;;;;;;5090668;28;20020;-61
2023/08/21 08:24:30;;;;;;;18.52;11.38;;;;;;;;;;5074832;28;20115;-60
2023/08/21 08:26:57;;;;;;;17.85;11.30;;;;;;;;;;5070567;28;20107;-61
2023/08/21 08:29:23;;;;;;;19.77;12.10;;;;;;;;;;5070580;28;20033;-59
2023/08/21 08:31:49;;;;;;;17.20;11.43;;;;;;;;;;5070533;28;20103;-60
2023/08/21 08:34:17;;;;;;;17.67;10.57;;;;;;;;;;5070394;28;20044;-59
2023/08/21 08:36:43;;;;;;;18.02;10.98;;;;;;;;;;5070801;28;20389;-58
2023/08/21 08:39:10;;;;;;;21.42;11.13;;;;;;;;;;5054756;28;20028;-59
2023/08/21 08:41:44;;;;;;;20.13;11.43;;;;;;;;;;5073209;28;20102;-59
2023/08/21 08:44:11;;;;;;;18.90;11.25;;;;;;;;;;5073352;28;20048;-58
2023/08/21 08:46:37;;;;;;;17.27;11.20;;;;;;;;;;5089324;28;20093;-57
2023/08/21 08:49:04;;;;;;;17.60;11.15;;;;;;;;;;5074621;28;20032;-59
2023/08/21 08:51:30;;;;;;;20.13;12.05;;;;;;;;;;5052426;28;20023;-59
2023/08/21 08:53:58;;;;;;;17.52;11.30;;;;;;;;;;5070105;28;20024;-58
2023/08/21 08:56:24;;;;;;;;;;;;;;;;;;4724878;28;10000135;-58
2023/08/21 08:58:50;;;;;;;21.25;11.70;;;;;;;;;;5079605;28;19946;-58
2023/08/21 09:01:16;;;;;;;18.75;11.68;;;;;;;;;;5085017;28;20028;-59
2023/08/21 09:03:42;;;;;;;17.52;11.88;;;;;;;;;;5090824;28;20325;-60
2023/08/21 09:06:08;;;;;;;19.50;12.48;;;;;;;;;;5086616;28;20024;-60
2023/08/21 09:08:34;;;;;;;17.42;11.68;;;;;;;;;;5071204;28;20020;-59
2023/08/21 09:11:03;;;;;;;18.05;12.13;;;;;;;;;;5061341;28;20488;-58
2023/08/21 09:13:31;;;;;;;19.33;11.70;;;;;;;;;;5072556;28;20051;-60
2023/08/21 09:15:57;;;;;;;19.08;12.88;;;;;;;;;;5075475;28;20093;-60
2023/08/21 09:18:23;;;;;;;17.38;11.63;;;;;;;;;;5070779;28;20032;-59
2023/08/21 09:20:49;;;;;;;18.15;11.40;;;;;;;;;;5070606;28;20067;-59
2023/08/21 09:23:16;;;;;;;18.08;11.85;;;;;;;;;;5088832;28;20635;-59
2023/08/21 09:25:44;;;;;;;20.67;12.63;;;;;;;;;;5090780;28;20024;-59
2023/08/21 09:28:10;;;;;;;18.58;12.95;;;;;;;;;;5090775;28;20028;-61
2023/08/21 09:30:52;;;;;;;20.00;12.25;;;;;;;;;;5073338;28;20032;-59
2023/08/21 09:33:19;;;;;;;20.95;12.20;;;;;;;;;;5088995;28;20039;-60
2023/08/21 09:35:45;;;;;;;18.02;11.63;;;;;;;;;;5091304;28;20035;-60
2023/08/21 09:38:11;;;;;;;17.98;12.68;;;;;;;;;;5093331;28;20103;-60
2023/08/21 09:40:39;;;;;;;18.02;12.38;;;;;;;;;;5075812;28;20012;-61
2023/08/21 09:43:05;;;;;;;18.98;13.85;;;;;;;;;;5093817;28;20054;-66
2023/08/21 09:45:34;;;;;;;20.70;12.38;;;;;;;;;;5093163;28;20020;-56
2023/08/21 09:48:00;;;;;;;19.15;12.48;;;;;;;;;;5094005;28;20035;-57
2023/08/21 09:50:26;;;;;;;18.27;11.80;;;;;;;;;;5094127;28;20074;-58
2023/08/21 09:52:53;;;;;;;16.42;11.73;;;;;;;;;;5093604;28;20061;-57
2023/08/21 09:55:19;;;;;;;18.45;11.95;;;;;;;;;;5093356;28;20028;-59
2023/08/21 09:57:46;;;;;;;18.67;12.57;;;;;;;;;;5093123;28;20365;-60
2023/08/21 10:00:21;;;;;;;18.58;13.07;;;;;;;;;;5092194;28;20050;-59
2023/08/21 10:02:49;;;;;;;17.30;12.27;;;;;;;;;;5082391;28;20032;-61
2023/08/21 10:05:17;;;;;;;18.95;12.48;;;;;;;;;;5072064;28;20040;-61
2023/08/21 10:07:44;;;;;;;17.43;13.07;;;;;;;;;;5055081;28;20127;-60
2023/08/21 10:10:11;;;;;;;18.05;12.50;;;;;;;;;;5072182;28;20549;-58
2023/08/21 10:12:37;;;;;;;18.80;13.07;;;;;;;;;;5072299;28;20017;-59
2023/08/21 10:15:03;;;;;;;20.05;13.65;;;;;;;;;;5071507;28;20544;-58
2023/08/21 10:17:31;;;;;;;21.63;12.30;;;;;;;;;;5072509;28;20112;-60
2023/08/21 10:20:02;;;;;;;18.88;13.63;;;;;;;;;;5084822;28;20469;-63
2023/08/21 10:22:48;;;;;;;19.90;12.75;;;;;;;;;;5074525;28;20024;-61
2023/08/21 10:25:37;;;;;;;19.42;12.85;;;;;;;;;;5092378;28;20293;-61
2023/08/21 10:28:04;;;;;;;19.27;12.32;;;;;;;;;;5091974;28;20038;-61
2023/08/21 10:30:31;;;;;;;18.30;12.73;;;;;;;;;;5092490;28;20020;-58
2023/08/21 10:32:59;;;;;;;17.30;12.02;;;;;;;;;;5093674;28;20028;-60
2023/08/21 10:35:29;;;;;;;19.23;12.95;;;;;;;;;;5092306;28;20016;-61
2023/08/21 10:38:17;;;;;;;22.80;12.30;;;;;;;;;;5092238;28;20024;-59
2023/08/21 10:41:02;;;;;;;18.83;12.40;;;;;;;;;;5092228;28;20115;-59
2023/08/21 10:43:44;;;;;;;18.95;12.80;;;;;;;;;;5092265;28;20500;-60
2023/08/21 10:46:11;;;;;;;16.70;12.30;;;;;;;;;;5091771;28;20038;-58
2023/08/21 10:48:37;;;;;;;17.25;12.45;;;;;;;;;;5091817;28;20031;-61
2023/08/21 10:51:04;;;;;;;23.48;12.88;;;;;;;;;;5073851;28;20035;-60
2023/08/21 10:53:31;;;;;;;19.75;12.35;;;;;;;;;;5092091;28;20081;-59
2023/08/21 10:55:57;;;;;;;19.25;13.30;;;;;;;;;;5089468;28;20037;-61
2023/08/21 10:58:23;;;;;;;17.70;12.65;;;;;;;;;;5080482;28;20024;-62
2023/08/21 11:00:59;;;;;;;16.50;11.88;;;;;;;;;;5088370;28;20031;-61
2023/08/21 11:03:25;;;;;;;18.33;12.30;;;;;;;;;;4381300;28;10000686;-63
2023/08/21 11:06:11;;;;;;;18.40;13.38;;;;;;;;;;5072777;28;20028;-64
2023/08/21 11:08:37;;;;;;;20.60;12.75;;;;;;;;;;5071084;28;20047;-63
2023/08/21 11:11:04;;;;;;;19.40;12.82;;;;;;;;;;5077090;28;20036;-61
2023/08/21 11:13:30;;;;;;;17.20;11.93;;;;;;;;;;5087033;28;20036;-63
2023/08/21 11:15:59;;;;;;;18.85;12.82;;;;;;;;;;5062741;28;20512;-57
2023/08/21 11:18:31;;;;;;;18.65;12.07;;;;;;;;;;5089876;28;20024;-59
2023/08/21 11:21:25;;;;;;;20.67;12.63;;;;;;;;;;5076959;28;20032;-58
2023/08/21 11:23:51;;;;;;;16.90;12.18;;;;;;;;;;5068043;28;20039;-58
2023/08/21 11:26:17;;;;;;;21.60;12.73;;;;;;;;;;5070009;28;20036;-58
2023/08/21 11:28:43;;;;;;;19.55;12.48;;;;;;;;;;5085082;28;20085;-55
2023/08/21 11:31:10;;;;;;;17.65;12.00;;;;;;;;;;5091246;28;20108;-60
2023/08/21 11:33:39;;;;;;;21.02;14.18;;;;;;;;;;5091941;28;20468;-60
2023/08/21 11:36:05;;;;;;;17.95;12.68;;;;;;;;;;5091284;28;20027;-58
2023/08/21 11:38:31;;;;;;;17.98;12.32;;;;;;;;;;5072993;28;20043;-60
2023/08/21 11:40:57;;;;;;;17.35;12.50;;;;;;;;;;5071185;28;20480;-60
2023/08/21 11:43:34;;;;;;;18.30;12.80;;;;;;;;;;5070945;28;20130;-60
2023/08/21 11:46:01;;;;;;;19.35;13.00;;;;;;;;;;5070822;28;20044;-57
2023/08/21 11:48:27;;;;;;;19.00;13.73;;;;;;;;;;5070694;28;20041;-59
2023/08/21 11:50:53;;;;;;;19.23;13.88;;;;;;;;;;5071014;28;20031;-61
2023/08/21 11:53:33;;;;;;;17.35;13.23;;;;;;;;;;5074135;28;20027;-61
2023/08/21 11:55:59;;;;;;;18.63;14.25;;;;;;;;;;5090783;28;20047;-59
2023/08/21 11:58:28;;;;;;;17.38;13.27;;;;;;;;;;5090424;28;20028;-59
2023/08/21 12:00:54;;;;;;;17.40;13.45;;;;;;;;;;5072449;28;20024;-61
2023/08/21 12:03:20;;;;;;;18.52;13.45;;;;;;;;;;5085249;28;20038;-58
2023/08/21 12:05:46;;;;;;;18.55;13.32;;;;;;;;;;5069247;28;20107;-61
2023/08/21 12:08:12;;;;;;;18.45;13.05;;;;;;;;;;5082186;28;20031;-61
2023/08/21 12:10:38;;;;;;;18.95;13.93;;;;;;;;;;5087482;28;20022;-61
2023/08/21 12:13:04;;;;;;;17.67;13.45;;;;;;;;;;5078972;28;20017;-61
2023/08/21 12:15:30;;;;;;;18.38;13.50;;;;;;;;;;5067050;28;20465;-61
2023/08/21 12:17:56;;;;;;;18.80;13.70;;;;;;;;;;5070291;28;20029;-58
2023/08/21 12:20:22;;;;;;;16.73;13.02;;;;;;;;;;5070810;28;20033;-59
2023/08/21 12:22:48;;;;;;;18.45;14.02;;;;;;;;;;5070617;28;20104;-59
2023/08/21 12:25:14;;;;;;;17.75;13.57;;;;;;;;;;5070194;28;20103;-57
2023/08/21 12:27:40;;;;;;;19.05;13.88;;;;;;;;;;5070483;28;20032;-59
2023/08/21 12:30:06;;;;;;;20.20;14.13;;;;;;;;;;5052236;28;20484;-57
2023/08/21 12:32:32;;;;;;;19.80;14.15;;;;;;;;;;5071443;28;20123;-58
2023/08/21 12:34:59;;;;;;;18.00;14.10;;;;;;;;;;5073797;28;20044;-62
2023/08/21 12:37:25;;;;;;;17.92;13.77;;;;;;;;;;5074705;28;20012;-59
2023/08/21 12:39:51;;;;;;;18.08;14.32;;;;;;;;;;5075992;28;20035;-61
2023/08/21 12:42:17;;;;;;;18.52;14.10;;;;;;;;;;5081495;28;20028;-61
2023/08/21 12:44:43;;;;;;;17.08;14.10;;;;;;;;;;5084526;28;20473;-57
2023/08/21 12:47:09;;;;;;;19.17;14.90;;;;;;;;;;5074412;28;20089;-57
2023/08/21 12:49:35;;;;;;;17.73;14.60;;;;;;;;;;5074483;28;20027;-55
2023/08/21 12:52:03;;;;;;;17.92;14.48;;;;;;;;;;5074461;28;20541;-58
2023/08/21 12:54:29;;;;;;;17.30;14.25;;;;;;;;;;5074263;28;20036;-57
2023/08/21 12:56:56;;;;;;;16.77;14.20;;;;;;;;;;5074554;28;20631;-56
2023/08/21 12:59:22;;;;;;;18.20;14.23;;;;;;;;;;5083880;28;20408;-58
2023/08/21 13:01:48;;;;;;;16.85;14.00;;;;;;;;;;5094044;28;20028;-60
2023/08/21 13:04:14;;;;;;;16.80;13.90;;;;;;;;;;5094216;28;20093;-52
2023/08/21 13:06:41;;;;;;;19.23;14.35;;;;;;;;;;5094578;28;20020;-55
2023/08/21 13:09:07;;;;;;;18.52;14.85;;;;;;;;;;5093997;28;20016;-56
2023/08/21 13:11:33;;;;;;;18.60;14.47;;;;;;;;;;5084641;28;20056;-51
2023/08/21 13:13:59;;;;;;;17.13;13.50;;;;;;;;;;5072742;28;20078;-56
2023/08/21 13:16:25;;;;;;;20.35;14.35;;;;;;;;;;5073783;28;20472;-50
2023/08/21 13:18:51;;;;;;;19.15;13.88;;;;;;;;;;5093473;28;20090;-56
2023/08/21 13:21:17;;;;;;;19.50;14.40;;;;;;;;;;5093899;28;20016;-52
2023/08/21 13:23:43;;;;;;;16.98;13.43;;;;;;;;;;5075751;28;20525;-53
2023/08/21 13:26:09;;;;;;;18.08;13.98;;;;;;;;;;5092060;28;20032;-53
2023/08/21 13:28:38;;;;;;;18.27;13.90;;;;;;;;;;4496796;28;10000962;-52
2023/08/21 13:31:06;;;;;;;18.58;14.18;;;;;;;;;;5089736;28;20119;-57
2023/08/21 13:33:32;;;;;;;16.80;13.82;;;;;;;;;;5089087;28;20024;-59
2023/08/21 13:35:58;;;;;;;17.85;13.73;;;;;;;;;;5081443;28;20330;-56
2023/08/21 13:38:24;;;;;;;18.45;14.50;;;;;;;;;;5070283;28;20036;-56
2023/08/21 13:40:50;;;;;;;17.80;14.20;;;;;;;;;;5071136;28;20028;-56
2023/08/21 13:43:16;;;;;;;18.83;13.95;;;;;;;;;;5070313;28;20064;-56
2023/08/21 13:45:42;;;;;;;18.23;14.43;;;;;;;;;;5070062;28;20025;-54
2023/08/21 13:48:08;;;;;;;19.25;14.65;;;;;;;;;;5070090;28;20455;-55
2023/08/21 13:50:35;;;;;;;19.02;14.50;;;;;;;;;;5057237;28;20077;-53
2023/08/21 13:53:01;;;;;;;18.33;14.48;;;;;;;;;;5072224;28;20516;-57
2023/08/21 13:55:27;;;;;;;17.48;13.98;;;;;;;;;;5090083;28;20039;-57
2023/08/21 13:57:53;;;;;;;18.20;14.02;;;;;;;;;;5090264;28;20103;-58
2023/08/21 14:00:19;;;;;;;17.38;14.20;;;;;;;;;;5090156;28;20024;-56
2023/08/21 14:02:45;;;;;;;17.98;13.77;;;;;;;;;;5070344;28;20165;-56
2023/08/21 14:05:11;;;;;;;18.55;14.60;;;;;;;;;;5072084;28;20111;-54
2023/08/21 14:07:38;;;;;;;21.08;14.60;;;;;;;;;;5071619;28;20605;-54
2023/08/21 14:10:05;;;;;;;17.90;14.43;;;;;;;;;;5090339;28;20035;-57
2023/08/21 14:12:31;;;;;;;17.55;14.23;;;;;;;;;;5073306;28;20028;-56
2023/08/21 14:14:59;;;;;;;18.50;14.30;;;;;;;;;;5078613;28;20031;-57
2023/08/21 14:17:25;;;;;;;;;;;;;;;;;;5089983;28;20024;-57
2023/08/21 14:19:51;;;;;;;17.58;13.60;;;;;;;;;;5071088;28;19936;-57
2023/08/21 14:22:17;;;;;;;16.63;13.90;;;;;;;;;;5089556;28;20522;-57